Time;durP1;ratioP1;P1;durP2;ratioP2;P2;SDS_P1;SDS_P2;PMS_P1;PMS_P2;Temp;Humidity;BMP_temperature;BMP_pressure;BME280_temperature;BME280_humidity;BME280_pressure;Samples;Min_cycle;Max_cycle;Signal;HPM_P1;HPM_P2
2022/03/30 00:01:03;;;;;;;41.63;27.30;;;;;;;13.22;65.94;99196.28;5047300;28;20875;-80
2022/03/30 00:03:29;;;;;;;39.73;25.93;;;;;;;13.23;64.80;99201.44;5044406;28;20409;-80
2022/03/30 00:05:55;;;;;;;41.13;27.10;;;;;;;13.24;65.13;99208.47;5030136;28;20476;-80
2022/03/30 00:08:20;;;;;;;42.23;27.13;;;;;;;13.16;65.33;99198.25;5047034;28;20425;-80
2022/03/30 00:10:45;;;;;;;40.77;27.07;;;;;;;13.20;65.30;99201.22;5029238;28;20462;-79
2022/03/30 00:13:11;;;;;;;39.23;26.90;;;;;;;13.23;65.15;99196.00;5034447;28;20440;-80
2022/03/30 00:15:36;;;;;;;43.13;26.98;;;;;;;13.16;64.80;99202.88;5050844;28;20413;-79
2022/03/30 00:18:01;;;;;;;39.70;25.27;;;;;;;13.09;65.56;99208.69;5016550;28;20405;-80
2022/03/30 00:20:27;;;;;;;38.88;26.55;;;;;;;13.09;66.19;99202.44;5027446;28;20478;-80
2022/03/30 00:22:52;;;;;;;37.77;26.23;;;;;;;13.10;65.27;99193.19;5036377;28;20393;-79
2022/03/30 00:25:18;;;;;;;41.83;26.83;;;;;;;13.11;65.83;99197.50;5026270;28;20425;-79
2022/03/30 00:27:46;;;;;;;41.28;28.58;;;;;;;13.07;66.62;99188.28;5033049;28;20417;-80
2022/03/30 00:30:13;;;;;;;40.30;27.38;;;;;;;13.07;66.57;99196.44;5041851;28;20421;-79
2022/03/30 00:32:39;;;;;;;45.08;27.77;;;;;;;13.07;66.71;99186.38;5037922;28;20946;-80
2022/03/30 00:35:06;;;;;;;44.58;28.85;;;;;;;13.07;67.02;99189.09;5029316;28;20421;-79
2022/03/30 00:37:32;;;;;;;47.63;27.17;;;;;;;13.07;67.29;99191.81;5050745;28;20398;-80
2022/03/30 00:39:57;;;;;;;41.17;27.25;;;;;;;13.09;67.96;99188.81;5050710;28;20408;-80
2022/03/30 00:42:23;;;;;;;39.50;26.53;;;;;;;13.09;67.59;99184.19;5050329;28;20389;-80
2022/03/30 00:44:49;;;;;;;42.95;28.45;;;;;;;13.09;67.57;99184.19;5025068;28;20405;-80
2022/03/30 00:47:27;;;;;;;51.35;30.52;;;;;;;13.09;68.03;99181.47;5018831;28;20393;-80
2022/03/30 00:49:53;;;;;;;47.58;30.70;;;;;;;13.09;68.69;99180.66;5022153;28;20416;-80
2022/03/30 00:52:20;;;;;;;46.35;31.38;;;;;;;13.09;68.99;99173.31;5030402;28;20416;-79
2022/03/30 00:54:48;;;;;;;47.20;31.60;;;;;;;13.10;69.36;99172.22;5049275;28;20405;-80
2022/03/30 00:57:14;;;;;;;44.53;29.75;;;;;;;13.09;68.92;99167.06;5025810;28;20444;-80
2022/03/30 00:59:41;;;;;;;43.27;29.33;;;;;;;13.11;68.94;99159.41;5040283;28;20591;-80
2022/03/30 01:02:07;;;;;;;44.35;28.95;;;;;;;13.12;69.15;99158.31;5023303;28;20424;-80
2022/03/30 01:04:33;;;;;;;41.78;28.05;;;;;;;13.09;69.14;99159.72;5023212;28;20418;-80
2022/03/30 01:06:58;;;;;;;45.78;29.75;;;;;;;13.04;69.06;99146.16;5015201;28;20397;-80
2022/03/30 01:09:24;;;;;;;48.10;30.23;;;;;;;13.01;69.32;99144.00;5050698;28;20405;-80
2022/03/30 01:11:53;;;;;;;47.13;28.45;;;;;;;12.98;69.00;99142.69;5025405;28;20825;-79
2022/03/30 01:14:19;;;;;;;47.17;28.50;;;;;;;13.00;68.69;99136.97;5026134;28;20405;-80
2022/03/30 01:16:46;;;;;;;48.50;29.23;;;;;;;13.00;68.73;99139.69;5039825;28;20393;-80
2022/03/30 01:19:11;;;;;;;47.03;29.15;;;;;;;12.93;69.18;99123.75;5038997;28;20443;-80
2022/03/30 01:21:39;;;;;;;47.03;28.53;;;;;;;12.95;69.29;99124.25;5042133;28;20406;-80
2022/03/30 01:24:05;;;;;;;43.92;28.98;;;;;;;12.92;69.19;99118.59;5025078;28;20420;-80
2022/03/30 01:26:32;;;;;;;42.70;28.55;;;;;;;12.92;69.35;99119.41;5036010;28;20438;-79
2022/03/30 01:28:57;;;;;;;38.28;25.50;;;;;;;12.82;69.24;99108.66;5033235;28;20738;-80
2022/03/30 01:34:07;;;;;;;42.88;28.25;;;;;;;12.71;70.25;99112.59;5050025;28;20405;-80
2022/03/30 01:36:35;;;;;;;47.63;27.60;;;;;;;12.63;70.32;99113.25;5015811;28;20434;-80
2022/03/30 01:39:01;;;;;;;40.65;28.45;;;;;;;12.63;70.45;99107.81;5048545;28;20396;-80
2022/03/30 01:41:26;;;;;;;38.42;26.73;;;;;;;12.59;69.81;99097.81;5030273;28;20390;-79
2022/03/30 01:43:51;;;;;;;43.33;26.90;;;;;;;12.35;69.67;99095.91;5026575;28;20488;-80
2022/03/30 01:46:17;;;;;;;48.08;29.50;;;;;;;12.29;70.12;99079.97;5033653;28;20905;-80
2022/03/30 01:48:42;;;;;;;44.80;29.87;;;;;;;12.37;70.58;99076.63;5019126;28;20405;-80
2022/03/30 01:51:08;;;;;;;43.97;29.98;;;;;;;12.42;70.87;99077.34;5046399;28;20423;-80
2022/03/30 01:53:33;;;;;;;43.90;29.07;;;;;;;12.43;70.74;99067.31;5045503;28;20404;-80
2022/03/30 01:55:58;;;;;;;44.40;29.67;;;;;;;12.43;70.67;99065.41;5033667;28;20459;-79
2022/03/30 01:58:24;;;;;;;40.50;28.00;;;;;;;12.46;70.72;99064.00;5031469;28;20873;-80
2022/03/30 02:00:49;;;;;;;46.65;29.10;;;;;;;12.46;70.52;99061.28;5046329;28;20821;-80
2022/03/30 02:03:15;;;;;;;39.43;28.53;;;;;;;12.47;70.37;99057.47;5028927;28;20413;-80
2022/03/30 02:05:40;;;;;;;43.10;29.45;;;;;;;12.47;70.38;99058.28;5023320;28;20403;-80
2022/03/30 02:08:05;;;;;;;43.00;28.07;;;;;;;12.47;69.67;99052.84;5044422;28;20393;-80
2022/03/30 02:10:31;;;;;;;45.80;29.00;;;;;;;12.48;69.62;99046.31;5046156;28;20476;-80
2022/03/30 02:12:58;;;;;;;44.50;27.93;;;;;;;12.48;69.21;99043.59;5020646;28;20399;-80
2022/03/30 02:15:24;;;;;;;46.00;28.90;;;;;;;12.46;68.84;99043.06;5023199;28;20745;-79
2022/03/30 02:17:49;;;;;;;44.03;29.10;;;;;;;12.44;69.58;99039.84;5043528;28;20496;-80
2022/03/30 02:20:14;;;;;;;41.20;28.27;;;;;;;12.42;69.46;99039.31;5038162;28;20421;-80
2022/03/30 02:22:40;;;;;;;41.47;27.47;;;;;;;12.42;69.38;99043.94;5031983;28;20437;-80
2022/03/30 02:25:06;;;;;;;43.70;28.23;;;;;;;12.34;68.92;99039.16;5052480;28;20417;-80
2022/03/30 02:27:32;;;;;;;40.38;27.83;;;;;;;12.29;69.33;99025.63;5045515;28;20393;-80
2022/03/30 02:29:57;;;;;;;42.07;27.93;;;;;;;12.31;69.56;99032.41;5038995;28;20888;-80
2022/03/30 02:32:23;;;;;;;41.50;27.67;;;;;;;12.23;69.75;99035.75;5044290;28;20491;-80
2022/03/30 02:34:48;;;;;;;44.77;28.37;;;;;;;12.24;69.87;99036.56;5037767;28;20431;-80
2022/03/30 02:37:14;;;;;;;44.55;28.02;;;;;;;12.13;69.13;99032.34;5027088;28;20406;-80
2022/03/30 02:39:40;;;;;;;51.83;29.52;;;;;;;12.21;69.09;99024.38;5029047;28;20428;-80
2022/03/30 02:42:09;;;;;;;45.45;28.17;;;;;;;12.30;69.52;99025.34;5045317;28;20860;-80
2022/03/30 02:44:35;;;;;;;43.47;27.10;;;;;;;12.36;67.90;99016.03;5016237;28;20413;-80
2022/03/30 02:47:01;;;;;;;48.00;28.65;;;;;;;12.40;67.84;99016.28;5028786;28;20384;-80
2022/03/30 02:49:27;;;;;;;42.60;28.37;;;;;;;12.41;68.53;99005.09;5027490;28;20813;-80
2022/03/30 02:51:52;;;;;;;44.50;27.73;;;;;;;12.38;68.77;98991.31;5038671;28;20383;-80
2022/03/30 02:54:18;;;;;;;41.88;25.80;;;;;;;12.35;68.65;99000.81;5045344;28;20471;-80
2022/03/30 02:56:43;;;;;;;41.30;26.30;;;;;;;12.37;68.05;99005.97;5052152;28;20778;-80
2022/03/30 02:59:09;;;;;;;43.07;26.97;;;;;;;12.05;69.21;99016.72;5036701;28;20414;-79
2022/03/30 03:01:34;;;;;;;39.80;26.73;;;;;;;11.96;69.88;99001.03;5038657;28;20456;-79
2022/03/30 03:03:59;;;;;;;41.83;27.33;;;;;;;12.09;69.87;99002.25;5048540;28;20930;-80
2022/03/30 03:06:25;;;;;;;41.33;27.40;;;;;;;12.26;69.80;99001.78;5039115;28;20448;-80
2022/03/30 03:08:51;;;;;;;40.10;24.40;;;;;;;12.37;68.97;99001.38;5036997;28;20432;-80
2022/03/30 03:11:16;;;;;;;33.93;25.40;;;;;;;12.37;67.65;99030.44;5038831;28;20393;-80
2022/03/30 03:13:42;;;;;;;35.33;25.30;;;;;;;11.93;69.47;99023.34;5030689;28;20531;-79
2022/03/30 03:16:07;;;;;;;40.33;26.23;;;;;;;12.05;69.47;99012.09;5051850;28;20853;-80
2022/03/30 03:18:32;;;;;;;40.57;25.80;;;;;;;12.19;68.40;99032.00;5033492;28;20409;-79
2022/03/30 03:20:58;;;;;;;41.87;26.27;;;;;;;12.06;68.35;99029.97;5036786;28;20484;-79
2022/03/30 03:23:23;;;;;;;40.30;25.13;;;;;;;12.18;67.53;99024.16;5006373;28;20427;-80
2022/03/30 03:25:48;;;;;;;40.00;24.30;;;;;;;12.31;67.56;99037.03;5029192;28;20417;-79
2022/03/30 03:28:14;;;;;;;36.95;25.05;;;;;;;12.26;67.95;99040.59;5019949;28;20936;-79
2022/03/30 03:30:41;;;;;;;36.20;25.55;;;;;;;12.10;68.51;99041.88;5020608;28;20408;-80
2022/03/30 03:33:07;;;;;;;41.13;25.75;;;;;;;12.13;69.45;99043.22;5014108;28;20479;-79
2022/03/30 03:35:33;;;;;;;40.38;25.60;;;;;;;12.03;69.87;99038.72;5015451;28;20388;-80
2022/03/30 03:38:00;;;;;;;43.75;26.70;;;;;;;12.05;70.24;99041.16;5020993;28;20419;-80
2022/03/30 03:40:27;;;;;;;38.13;23.50;;;;;;;12.03;69.73;99036.00;5020979;28;20385;-80
2022/03/30 03:42:52;;;;;;;39.13;23.88;;;;;;;12.03;70.05;99037.91;5023251;28;20848;-80
2022/03/30 03:45:18;;;;;;;35.23;23.70;;;;;;;12.01;70.58;99037.38;5019538;28;20492;-79
2022/03/30 03:47:44;;;;;;;40.13;24.08;;;;;;;11.94;70.51;99043.97;5046994;28;20737;-79
2022/03/30 03:50:11;;;;;;;36.25;22.33;;;;;;;11.80;71.45;99047.63;5036198;28;20405;-80
2022/03/30 03:52:36;;;;;;;40.20;24.88;;;;;;;11.89;72.12;99044.00;5023306;28;20821;-80
2022/03/30 03:55:03;;;;;;;42.08;24.58;;;;;;;11.94;71.60;99043.16;5031724;28;20428;-80
2022/03/30 03:57:29;;;;;;;36.60;23.47;;;;;;;11.98;72.03;99041.50;5051261;28;20464;-80
2022/03/30 03:59:55;;;;;;;31.48;23.55;;;;;;;12.01;71.50;99038.19;5039171;28;20436;-80
2022/03/30 04:02:20;;;;;;;38.55;24.77;;;;;;;11.96;72.12;99033.63;5051164;28;20390;-80
2022/03/30 04:04:45;;;;;;;40.50;24.13;;;;;;;11.95;72.27;99031.22;5046567;28;20424;-80
2022/03/30 04:07:11;;;;;;;36.00;23.27;;;;;;;11.90;72.47;99036.69;5013304;28;20430;-80
2022/03/30 04:09:36;;;;;;;43.13;26.30;;;;;;;11.80;72.89;99034.06;4999975;28;20420;-80
2022/03/30 04:12:02;;;;;;;41.47;26.63;;;;;;;11.76;73.83;99033.84;5034843;28;20873;-80
2022/03/30 04:14:28;;;;;;;43.33;25.88;;;;;;;11.80;73.88;99031.34;5027544;28;20405;-80
2022/03/30 04:16:53;;;;;;;48.10;26.93;;;;;;;11.80;73.88;99031.34;5017127;28;20391;-81
2022/03/30 04:19:18;;;;;;;42.47;26.23;;;;;;;11.84;73.84;99030.50;4998368;28;20892;-80
2022/03/30 04:21:44;;;;;;;41.93;26.10;;;;;;;11.80;73.53;99028.63;5017314;28;20805;-81
2022/03/30 04:24:10;;;;;;;46.97;28.93;;;;;;;11.78;74.44;99034.38;5008801;28;20455;-80
2022/03/30 04:26:36;;;;;;;48.05;28.13;;;;;;;11.80;74.13;99034.88;5042336;28;20459;-80
2022/03/30 04:29:02;;;;;;;47.60;29.55;;;;;;;11.69;74.87;99030.59;5012824;28;20504;-80
2022/03/30 04:31:27;;;;;;;44.15;27.27;;;;;;;11.65;75.13;99023.34;5020040;28;20504;-81
2022/03/30 04:33:53;;;;;;;44.20;27.80;;;;;;;11.64;75.29;99021.72;5014580;28;20551;-80
2022/03/30 04:36:19;;;;;;;52.43;30.07;;;;;;;11.62;75.64;99021.22;5023796;28;20889;-80
2022/03/30 04:38:45;;;;;;;50.45;29.08;;;;;;;11.55;75.62;99016.13;5029699;28;20425;-81
2022/03/30 04:41:10;;;;;;;51.33;28.37;;;;;;;11.44;76.06;99012.69;5028940;28;21018;-81
2022/03/30 04:43:35;;;;;;;49.37;28.00;;;;;;;11.33;76.18;99013.84;5025074;28;20406;-81
2022/03/30 04:46:01;;;;;;;46.30;29.47;;;;;;;11.31;76.56;99013.34;5020724;28;20926;-81
2022/03/30 04:48:26;;;;;;;43.00;28.50;;;;;;;11.30;76.46;99009.00;5035828;28;20428;-80
2022/03/30 04:50:51;;;;;;;46.33;27.83;;;;;;;11.25;76.75;99006.34;5041712;28;20409;-81
2022/03/30 04:53:17;;;;;;;45.45;28.88;;;;;;;11.25;76.88;99011.78;5030033;28;20558;-81
2022/03/30 04:55:42;;;;;;;47.30;29.10;;;;;;;11.28;76.96;99004.97;5047870;28;20455;-81
2022/03/30 04:58:08;;;;;;;50.00;29.00;;;;;;;11.25;76.99;99005.53;5053827;28;20859;-80
2022/03/30 05:00:33;;;;;;;48.38;29.15;;;;;;;11.24;77.27;99001.19;5023786;28;20424;-80
2022/03/30 05:02:59;;;;;;;49.23;29.40;;;;;;;11.23;77.14;98992.25;5028719;28;20502;-81
2022/03/30 05:05:24;;;;;;;52.87;29.43;;;;;;;11.19;77.53;98990.41;5035570;28;20406;-81
2022/03/30 05:07:49;;;;;;;48.17;29.20;;;;;;;11.19;77.52;98985.00;5051726;28;20432;-81
2022/03/30 05:10:15;;;;;;;48.53;27.83;;;;;;;11.21;77.45;98985.50;5032856;28;20561;-81
2022/03/30 05:12:41;;;;;;;43.40;24.70;;;;;;;11.27;77.24;98984.34;5014399;28;20915;-81
2022/03/30 05:15:09;;;;;;;41.80;26.23;;;;;;;11.27;77.50;98982.47;5031312;28;20781;-81
2022/03/30 05:17:36;;;;;;;47.25;28.13;;;;;;;11.29;77.32;98977.56;5012158;28;20506;-81
2022/03/30 05:20:02;;;;;;;42.33;25.67;;;;;;;11.34;77.22;98968.56;5037581;28;20500;-80
2022/03/30 05:22:27;;;;;;;40.40;23.37;;;;;;;11.33;76.79;98964.22;5031662;28;20974;-81
2022/03/30 05:24:53;;;;;;;39.70;25.03;;;;;;;11.36;77.22;98966.41;5032674;28;20421;-81
2022/03/30 05:27:18;;;;;;;43.10;25.07;;;;;;;11.39;77.32;98969.31;5030149;28;20881;-81
2022/03/30 05:29:43;;;;;;;39.00;24.50;;;;;;;11.42;77.67;98966.06;5020766;28;20430;-83
2022/03/30 05:32:09;;;;;;;42.27;25.03;;;;;;;11.43;77.57;98969.56;5022225;28;20407;-81
2022/03/30 05:34:34;;;;;;;39.97;26.07;;;;;;;11.42;78.00;98970.66;5033508;28;20878;-82
2022/03/30 05:36:59;;;;;;;44.73;26.70;;;;;;;11.47;78.38;98959.75;5022454;28;20464;-81
2022/03/30 05:39:25;;;;;;;46.87;28.90;;;;;;;11.52;78.51;98959.72;5024203;28;20848;-81
2022/03/30 05:41:52;;;;;;;44.20;27.17;;;;;;;11.53;78.18;98960.50;5029498;28;20459;-80
2022/03/30 05:44:17;;;;;;;45.28;25.90;;;;;;;11.49;78.32;98962.19;5032975;28;20417;-82
2022/03/30 05:46:43;;;;;;;39.03;25.17;;;;;;;11.50;78.33;98961.09;5028768;28;20414;-81
2022/03/30 05:49:08;;;;;;;47.65;25.75;;;;;;;11.51;78.86;98960.81;5036312;28;20434;-79
2022/03/30 05:51:33;;;;;;;48.90;25.93;;;;;;;11.53;78.71;98963.22;5020059;28;20408;-80
2022/03/30 05:53:59;;;;;;;48.45;26.48;;;;;;;11.54;79.20;98962.94;5018319;28;20473;-82
2022/03/30 05:57:00;;;;;;;45.37;26.70;;;;;;;11.53;79.11;98960.50;5030841;28;20494;-82
2022/03/30 05:59:11;;;;;;;46.83;24.23;;;;;;;11.56;78.78;98963.44;5025994;28;20410;-82
2022/03/30 06:01:37;;;;;;;40.78;24.30;;;;;;;11.59;78.78;98962.09;5008682;28;20413;-81
2022/03/30 06:04:02;;;;;;;41.65;23.70;;;;;;;11.64;78.28;98957.41;5024820;28;20415;-81
2022/03/30 06:06:27;;;;;;;42.87;24.40;;;;;;;11.69;78.45;98962.00;5031973;28;20411;-82
2022/03/30 06:08:53;;;;;;;43.60;24.75;;;;;;;11.71;78.38;98955.19;5031774;28;20928;-80
2022/03/30 06:11:18;;;;;;;47.87;26.10;;;;;;;11.74;78.34;98960.03;5028004;28;20433;-81
2022/03/30 06:13:44;;;;;;;38.25;24.25;;;;;;;11.76;78.12;98960.56;5031467;28;20404;-80
2022/03/30 06:16:09;;;;;;;45.08;24.52;;;;;;;11.76;78.11;98955.13;5043040;28;20451;-82
2022/03/30 06:18:35;;;;;;;45.77;26.17;;;;;;;11.76;78.37;98949.69;5046087;28;20473;-80
2022/03/30 06:21:01;;;;;;;45.63;24.37;;;;;;;11.76;78.60;98955.13;5037347;28;20417;-85
2022/03/30 06:23:27;;;;;;;38.47;21.50;;;;;;;11.77;78.08;98955.94;5037081;28;20944;-81
2022/03/30 06:25:53;;;;;;;34.17;18.40;;;;;;;11.71;76.97;98957.91;5031890;28;20458;-85
2022/03/30 06:28:22;;;;;;;37.37;19.30;;;;;;;11.70;76.66;98950.84;5027245;28;20971;-82
2022/03/30 06:30:48;;;;;;;38.92;20.88;;;;;;;11.74;77.02;98948.38;5040880;28;20907;-82
2022/03/30 06:33:13;;;;;;;41.83;25.47;;;;;;;11.78;77.55;98947.53;5030757;28;20409;-81
2022/03/30 06:35:39;;;;;;;53.03;24.02;;;;;;;11.81;77.94;98951.56;5029440;28;20399;-81
2022/03/30 06:38:05;;;;;;;36.95;23.77;;;;;;;11.81;78.34;98951.56;4999010;28;20417;-81
2022/03/30 06:40:33;;;;;;;41.78;22.63;;;;;;;11.86;78.21;98956.91;5030496;28;20893;-81
2022/03/30 06:43:00;;;;;;;37.85;21.83;;;;;;;11.88;77.25;98955.53;5024720;28;20411;-81
2022/03/30 06:45:28;;;;;;;37.28;21.73;;;;;;;11.88;77.08;98955.53;5010717;28;21031;-81
2022/03/30 06:47:53;;;;;;;34.40;23.75;;;;;;;11.90;77.50;98952.53;5027961;28;20886;-81
2022/03/30 06:50:20;;;;;;;35.27;22.23;;;;;;;11.92;77.83;98950.34;5025102;28;20466;-81
2022/03/30 06:52:46;;;;;;;38.33;23.48;;;;;;;11.89;77.69;98950.91;5033139;28;20438;-81
2022/03/30 06:55:14;;;;;;;41.90;23.05;;;;;;;11.81;77.71;98949.66;5022771;28;20511;-81
2022/03/30 06:57:39;;;;;;;38.85;24.80;;;;;;;11.78;77.88;98942.09;5013559;28;20504;-81
2022/03/30 07:00:05;;;;;;;40.90;23.57;;;;;;;11.81;78.33;98943.41;5024298;28;20544;-80
2022/03/30 07:02:31;;;;;;;39.47;21.67;;;;;;;11.85;78.17;98942.56;5007507;28;20408;-80
2022/03/30 07:04:57;;;;;;;41.35;23.88;;;;;;;11.85;78.14;98933.59;5021571;28;20413;-81
2022/03/30 07:10:15;;;;;;;39.97;22.88;;;;;;;11.85;78.70;98941.75;5032408;28;20449;-81
2022/03/30 07:12:50;;;;;;;36.88;22.15;;;;;;;11.88;78.64;98946.59;5016223;28;20929;-81
2022/03/30 07:15:17;;;;;;;41.03;23.10;;;;;;;11.89;78.84;98945.47;5020313;28;20412;-81
2022/03/30 07:17:53;;;;;;;35.20;21.10;;;;;;;11.89;79.08;98943.56;5029840;28;20439;-80
2022/03/30 07:20:20;;;;;;;47.00;24.13;;;;;;;11.91;79.07;98933.25;5029873;28;20413;-81
2022/03/30 07:22:47;;;;;;;42.50;23.70;;;;;;;11.92;78.71;98932.13;5021634;28;20405;-81
2022/03/30 07:25:14;;;;;;;39.47;23.45;;;;;;;11.91;78.74;98927.00;5027851;28;20775;-81
2022/03/30 07:27:41;;;;;;;49.95;28.17;;;;;;;11.94;78.56;98932.66;5044583;28;20401;-81
2022/03/30 07:30:08;;;;;;;38.30;25.63;;;;;;;12.00;78.84;98927.97;5024436;28;20517;-81
2022/03/30 07:32:34;;;;;;;42.33;27.93;;;;;;;11.90;78.84;98928.09;5008514;28;20459;-81
2022/03/30 07:35:00;;;;;;;42.90;25.67;;;;;;;11.83;79.08;98927.63;5035404;28;20415;-80
2022/03/30 07:37:25;;;;;;;40.77;26.80;;;;;;;11.93;78.55;98925.59;5009671;28;21013;-81
2022/03/30 07:39:51;;;;;;;41.90;27.70;;;;;;;11.94;78.56;98919.09;5024750;28;20504;-81
2022/03/30 07:42:16;;;;;;;39.67;27.87;;;;;;;11.93;78.53;98927.50;5015486;28;20478;-80
2022/03/30 07:44:41;;;;;;;41.35;26.67;;;;;;;11.86;78.57;98927.88;5028084;28;20411;-81
2022/03/30 07:47:06;;;;;;;39.20;26.30;;;;;;;11.85;78.35;98926.28;5021971;28;20416;-81
2022/03/30 07:49:32;;;;;;;46.73;27.83;;;;;;;11.86;78.19;98935.19;5022476;28;20455;-81
2022/03/30 07:52:00;;;;;;;41.13;26.87;;;;;;;11.85;78.53;98926.28;5021815;28;20406;-80
2022/03/30 07:54:28;;;;;;;48.38;30.08;;;;;;;11.83;78.18;98933.06;5008072;28;20414;-80
2022/03/30 07:56:53;;;;;;;45.70;32.33;;;;;;;11.78;78.72;98933.94;5025030;28;20434;-81
2022/03/30 07:59:18;;;;;;;54.57;36.77;;;;;;;11.75;78.93;98931.00;5039623;28;20914;-80
2022/03/30 08:01:44;;;;;;;51.93;33.10;;;;;;;11.79;79.22;98938.25;5022502;28;20409;-80
2022/03/30 08:04:09;;;;;;;48.77;32.33;;;;;;;11.73;79.06;98944.03;5004976;28;20414;-80
2022/03/30 08:06:34;;;;;;;43.73;30.47;;;;;;;11.71;79.58;98941.63;5045466;28;20489;-81
2022/03/30 08:08:59;;;;;;;44.70;30.13;;;;;;;11.69;79.10;98937.56;5036074;28;20839;-80
2022/03/30 08:11:25;;;;;;;53.33;37.23;;;;;;;11.60;79.77;98937.38;5017425;28;20424;-81
2022/03/30 08:13:50;;;;;;;54.83;34.90;;;;;;;11.66;79.61;98941.63;5026630;28;20409;-80
2022/03/30 08:16:16;;;;;;;55.28;35.92;;;;;;;11.59;79.80;98945.81;5019988;28;20420;-81
2022/03/30 08:18:41;;;;;;;53.57;35.57;;;;;;;11.58;80.54;98941.47;5016786;28;20408;-81
2022/03/30 08:23:50;;;;;;;57.42;36.22;;;;;;;11.64;80.08;98941.13;5022679;28;20431;-80
2022/03/30 08:26:15;;;;;;;53.37;34.87;;;;;;;11.63;79.78;98938.69;5022528;28;20495;-81
2022/03/30 08:28:41;;;;;;;44.37;31.83;;;;;;;11.49;78.86;98946.72;5029120;28;20462;-81
2022/03/30 08:31:06;;;;;;;45.93;31.13;;;;;;;11.34;78.21;98947.69;5041734;28;20414;-82
2022/03/30 08:33:32;;;;;;;48.47;32.63;;;;;;;11.29;77.93;98955.88;5037220;28;20435;-82
2022/03/30 08:35:57;;;;;;;46.00;33.63;;;;;;;11.16;77.71;98950.31;5027947;28;20403;-82
2022/03/30 08:38:22;;;;;;;49.03;34.10;;;;;;;10.97;77.83;98950.19;5028894;28;20406;-82
2022/03/30 08:40:48;;;;;;;45.83;32.63;;;;;;;10.88;77.54;98943.75;5030799;28;20400;-82
2022/03/30 08:43:13;;;;;;;48.35;35.90;;;;;;;10.85;77.60;98950.56;5021795;28;20418;-82
2022/03/30 08:45:41;;;;;;;48.30;33.17;;;;;;;10.81;78.15;98951.41;5017495;28;20407;-82
2022/03/30 08:48:07;;;;;;;51.95;35.15;;;;;;;10.83;77.89;98955.44;5028855;28;20492;-82
2022/03/30 08:50:33;;;;;;;49.33;35.25;;;;;;;10.77;77.61;98953.84;5025058;28;20497;-82
2022/03/30 08:53:02;;;;;;;47.72;33.83;;;;;;;10.78;77.82;98958.19;5028296;28;20422;-81
2022/03/30 08:55:28;;;;;;;54.85;36.97;;;;;;;10.68;77.36;98957.47;5031775;28;20407;-84
2022/03/30 08:57:54;;;;;;;55.35;39.95;;;;;;;10.61;77.47;98960.47;5037593;28;20416;-81
2022/03/30 09:00:21;;;;;;;55.53;38.97;;;;;;;10.61;77.74;98960.47;5018677;28;20462;-83
2022/03/30 09:02:59;;;;;;;56.17;39.65;;;;;;;10.68;77.19;98960.97;5027446;28;20453;-81
2022/03/30 09:05:27;;;;;;;59.58;39.30;;;;;;;10.77;76.77;98958.47;5035832;28;20510;-81
2022/03/30 09:08:14;;;;;;;56.53;37.92;;;;;;;10.78;77.02;98958.19;5045592;28;20408;-83
2022/03/30 09:10:47;;;;;;;55.28;40.17;;;;;;;10.77;77.09;98967.41;5017060;28;20428;-81
2022/03/30 09:13:14;;;;;;;56.75;41.33;;;;;;;10.77;77.27;98964.69;5030604;28;20432;-82
2022/03/30 09:15:40;;;;;;;60.20;41.63;;;;;;;10.83;76.91;98973.63;5034749;28;20410;-81
2022/03/30 09:18:08;;;;;;;60.75;43.17;;;;;;;10.77;77.17;98966.59;5023667;28;20409;-81
2022/03/30 09:20:39;;;;;;;57.33;42.33;;;;;;;10.78;77.31;98968.22;5033858;28;20417;-81
2022/03/30 09:23:06;;;;;;;65.20;44.08;;;;;;;10.79;77.42;98956.31;5038167;28;20442;-79
2022/03/30 09:25:32;;;;;;;63.88;42.28;;;;;;;10.85;77.03;98957.88;5003523;28;20421;-80
2022/03/30 09:27:59;;;;;;;63.03;42.70;;;;;;;10.85;77.32;98955.97;5003437;28;20425;-79
2022/03/30 09:30:26;;;;;;;61.80;42.55;;;;;;;10.90;77.06;98961.34;5031646;28;20425;-79
2022/03/30 09:32:54;;;;;;;64.57;43.20;;;;;;;10.82;76.39;98953.84;5028877;28;20405;-80
2022/03/30 09:35:34;;;;;;;61.95;43.30;;;;;;;10.65;76.93;98955.31;5022796;28;20420;-80
2022/03/30 09:38:17;;;;;;;64.20;44.35;;;;;;;10.62;77.72;98958.59;5040585;28;20797;-80
2022/03/30 09:40:49;;;;;;;59.70;42.97;;;;;;;10.70;77.02;98958.00;5036699;28;20411;-80
2022/03/30 09:43:26;;;;;;;63.25;43.80;;;;;;;10.75;76.98;98961.47;5027652;28;20419;-79
2022/03/30 09:46:01;;;;;;;60.13;43.83;;;;;;;10.67;77.29;98964.00;5039166;28;20447;-80
2022/03/30 09:48:27;;;;;;;65.60;43.87;;;;;;;10.71;77.56;98957.69;5015474;28;20444;-80
2022/03/30 09:50:55;;;;;;;61.33;44.07;;;;;;;10.80;77.40;98961.41;5017989;28;20467;-80
2022/03/30 09:53:25;;;;;;;58.63;43.93;;;;;;;10.75;77.04;98964.19;5024584;28;20958;-80
2022/03/30 09:56:06;;;;;;;69.73;47.10;;;;;;;10.52;77.65;98956.75;5035539;28;20432;-80
2022/03/30 09:58:34;;;;;;;63.95;46.97;;;;;;;10.60;78.06;98958.06;5014977;28;20411;-80
2022/03/30 10:01:05;;;;;;;70.13;48.78;;;;;;;10.59;77.90;98956.44;5027517;28;20405;-80
2022/03/30 10:03:54;;;;;;;69.40;48.10;;;;;;;10.59;78.32;98962.66;5011158;28;21159;-81
2022/03/30 10:06:33;;;;;;;72.70;48.78;;;;;;;10.54;78.59;98954.56;5026648;28;20494;-81
2022/03/30 10:08:59;;;;;;;71.50;48.53;;;;;;;10.49;78.61;98954.59;5032877;28;20409;-81
2022/03/30 10:11:28;;;;;;;62.42;45.13;;;;;;;10.55;77.99;98958.91;5014794;28;20407;-81
2022/03/30 10:13:56;;;;;;;61.92;43.92;;;;;;;10.53;78.00;98954.84;5036280;28;20395;-81
2022/03/30 10:16:22;;;;;;;62.72;43.22;;;;;;;10.40;78.12;98957.13;5036335;28;20506;-81
2022/03/30 10:18:50;;;;;;;63.00;45.22;;;;;;;10.42;78.68;98951.41;5027337;28;20409;-80
2022/03/30 10:21:36;;;;;;;62.70;44.17;;;;;;;10.47;78.60;98958.69;5038055;28;20903;-81
2022/03/30 10:24:38;;;;;;;60.03;44.00;;;;;;;10.60;78.40;98956.16;5013361;28;22776;-81
2022/03/30 10:27:17;;;;;;;62.78;44.75;;;;;;;10.62;78.18;98959.41;5017844;28;20441;-80
2022/03/30 10:29:49;;;;;;;57.35;43.22;;;;;;;10.62;78.49;98953.97;5031330;28;20421;-81
2022/03/30 10:32:23;;;;;;;60.78;44.58;;;;;;;10.66;78.57;98956.94;5029293;28;20408;-81
2022/03/30 10:34:57;;;;;;;55.42;40.40;;;;;;;10.50;78.27;98953.53;5023436;28;20407;-81
2022/03/30 10:37:33;;;;;;;58.65;40.83;;;;;;;10.48;78.79;98952.16;5029019;28;20442;-80
2022/03/30 10:40:09;;;;;;;50.47;36.93;;;;;;;10.51;78.58;98954.31;5020345;28;20413;-81
2022/03/30 10:42:47;;;;;;;48.83;37.10;;;;;;;10.57;78.23;98953.22;5025317;28;20916;-81
2022/03/30 10:45:43;;;;;;;52.28;37.20;;;;;;;10.47;78.50;98947.88;5015859;28;20458;-80
2022/03/30 10:48:18;;;;;;;49.83;37.03;;;;;;;10.53;78.63;98952.16;5027516;28;20886;-81
2022/03/30 10:50:54;;;;;;;48.45;37.55;;;;;;;10.65;78.19;98945.28;5033016;28;20424;-80
2022/03/30 10:53:31;;;;;;;52.30;37.95;;;;;;;10.63;78.04;98947.47;5029543;28;20408;-81
2022/03/30 10:56:09;;;;;;;52.67;40.08;;;;;;;10.55;78.32;98949.97;5022082;28;20415;-81
2022/03/30 10:59:00;;;;;;;55.60;39.55;;;;;;;10.35;78.85;98948.19;5035029;28;20470;-81
2022/03/30 11:01:31;;;;;;;51.58;39.00;;;;;;;10.45;78.92;98939.19;5019677;28;20518;-81
2022/03/30 11:04:02;;;;;;;53.35;39.67;;;;;;;10.59;78.86;98934.78;5015860;28;20427;-81
2022/03/30 11:06:29;;;;;;;52.78;39.72;;;;;;;10.72;77.87;98947.69;5028328;28;20782;-81
2022/03/30 11:08:59;;;;;;;55.40;40.88;;;;;;;10.68;77.57;98938.50;5022142;28;20673;-81
2022/03/30 11:11:34;;;;;;;60.60;42.00;;;;;;;10.63;78.56;98928.53;5017347;28;20409;-81
2022/03/30 11:14:26;;;;;;;47.83;38.25;;;;;;;10.75;77.78;98926.25;5018621;28;20418;-81
2022/03/30 11:16:56;;;;;;;53.17;39.80;;;;;;;10.84;77.29;98929.97;5026313;28;20408;-82
2022/03/30 11:19:28;;;;;;;47.58;38.13;;;;;;;10.85;76.82;98934.31;5037482;28;20403;-83
2022/03/30 11:22:09;;;;;;;50.97;38.67;;;;;;;10.83;76.66;98935.69;5013281;28;20420;-83
2022/03/30 11:24:36;;;;;;;55.03;38.88;;;;;;;10.80;76.61;98936.25;5017588;28;20479;-83
2022/03/30 11:27:01;;;;;;;56.42;40.28;;;;;;;10.75;77.53;98934.38;5028060;28;20500;-80